Time;durP1;ratioP1;P1;durP2;ratioP2;P2;SDS_P1;SDS_P2;PMS_P1;PMS_P2;Temp;Humidity;BMP_temperature;BMP_pressure;BME280_temperature;BME280_humidity;BME280_pressure;Samples;Min_cycle;Max_cycle;Signal;HPM_P1;HPM_P2
2022/03/01 00:00:27;;;;;;;4.30;2.05;;;;;;;1.28;54.01;101729.78;1779039;80;21739;-61
2022/03/01 00:02:55;;;;;;;2.98;1.80;;;;;;;1.24;54.02;101722.86;1774287;80;21547;-61
2022/03/01 00:05:24;;;;;;;3.62;2.12;;;;;;;1.25;54.09;101728.16;1774681;81;21112;-61
2022/03/01 00:07:54;;;;;;;3.02;1.50;;;;;;;1.24;54.12;101719.67;1774218;81;21151;-61
2022/03/01 00:10:23;;;;;;;4.03;1.60;;;;;;;1.21;54.19;101736.56;1774527;81;21682;-61
2022/03/01 00:12:52;;;;;;;3.40;1.82;;;;;;;1.16;54.30;101725.22;1774598;81;21207;-59
2022/03/01 00:15:21;;;;;;;3.77;1.87;;;;;;;1.14;54.37;101722.63;1774532;81;21174;-62
2022/03/01 00:17:51;;;;;;;3.27;1.65;;;;;;;1.12;54.49;101731.31;1774497;81;21119;-62
2022/03/01 00:20:21;;;;;;;4.35;2.00;;;;;;;1.12;54.54;101710.20;1774655;81;21487;-61
2022/03/01 00:22:50;;;;;;;4.27;1.90;;;;;;;1.14;54.43;101712.31;1775041;81;21499;-62
2022/03/01 00:25:19;;;;;;;3.85;2.17;;;;;;;1.12;54.56;101720.52;1774848;81;21550;-61
2022/03/01 00:27:47;;;;;;;3.15;1.65;;;;;;;1.14;54.56;101706.91;1774516;81;21540;-61
2022/03/01 00:30:18;;;;;;;4.28;1.82;;;;;;;1.13;54.60;101706.53;1774641;81;21083;-61
2022/03/01 00:32:48;;;;;;;4.17;1.90;;;;;;;1.13;54.60;101700.66;1774621;81;21583;-60
2022/03/01 00:35:18;;;;;;;3.15;1.77;;;;;;;1.10;54.69;101708.09;1774776;81;21704;-61
2022/03/01 00:37:47;;;;;;;4.53;1.98;;;;;;;1.09;54.68;101700.48;1774996;79;21549;-60
2022/03/01 00:40:16;;;;;;;3.98;2.12;;;;;;;1.06;54.72;101700.69;1774760;81;21571;-61
2022/03/01 00:42:46;;;;;;;3.30;1.77;;;;;;;1.04;54.82;101708.03;1774636;81;21174;-61
2022/03/01 00:45:15;;;;;;;4.33;1.80;;;;;;;1.00;54.95;101702.94;1774570;81;21583;-61
2022/03/01 00:47:44;;;;;;;2.22;1.50;;;;;;;0.99;55.02;101707.96;1774723;81;21151;-61
2022/03/01 00:50:13;;;;;;;3.33;1.67;;;;;;;0.98;55.09;101711.63;1774577;81;21104;-61
2022/03/01 00:52:42;;;;;;;2.98;1.50;;;;;;;0.97;55.12;101713.95;1774797;81;21251;-61
2022/03/01 00:55:11;;;;;;;3.52;2.08;;;;;;;0.96;55.20;101703.64;1774751;79;21151;-61
2022/03/01 00:57:40;;;;;;;3.98;1.60;;;;;;;0.94;55.23;101702.39;1774777;81;21123;-61
2022/03/01 01:00:09;;;;;;;4.92;2.22;;;;;;;0.92;55.26;101705.68;1774854;79;21557;-61
2022/03/01 01:02:38;;;;;;;3.15;1.75;;;;;;;0.90;55.29;101704.92;1782796;80;21155;-61
2022/03/01 01:05:08;;;;;;;3.95;1.87;;;;;;;0.89;55.40;101704.53;1788286;80;21131;-62
2022/03/01 01:07:37;;;;;;;3.55;1.60;;;;;;;0.90;55.47;101705.41;1788447;80;21680;-61
2022/03/01 01:10:07;;;;;;;3.52;1.80;;;;;;;0.90;55.53;101703.56;1788458;80;21535;-61
2022/03/01 01:12:36;;;;;;;3.80;1.87;;;;;;;0.90;55.69;101704.92;1788544;80;21688;-61
2022/03/01 01:15:06;;;;;;;3.17;1.75;;;;;;;0.89;55.83;101697.79;1788316;80;21119;-61
2022/03/01 01:17:36;;;;;;;2.55;1.40;;;;;;;0.89;55.92;101705.89;1788308;79;21099;-61
2022/03/01 01:20:07;;;;;;;3.67;2.10;;;;;;;0.88;55.99;101701.45;1788582;79;21570;-61
2022/03/01 01:22:42;;;;;;;3.05;1.87;;;;;;;0.84;55.98;101703.12;1788561;80;21210;-61
2022/03/01 01:25:17;;;;;;;2.65;1.72;;;;;;;0.83;55.99;101706.78;1788269;80;21552;-62
2022/03/01 01:27:48;;;;;;;3.70;1.75;;;;;;;0.77;56.10;101703.15;1788227;80;21222;-61
2022/03/01 01:30:21;;;;;;;7.95;1.82;;;;;;;0.71;56.24;101705.77;1788498;80;21150;-61
2022/03/01 01:32:50;;;;;;;6.30;1.67;;;;;;;0.69;56.52;101708.19;1788308;80;21589;-61
2022/03/01 01:35:22;;;;;;;3.92;1.80;;;;;;;0.66;56.66;101704.34;1788251;79;21670;-62
2022/03/01 01:37:51;;;;;;;2.87;1.65;;;;;;;0.64;56.81;101708.47;1788448;80;21605;-60
2022/03/01 01:40:23;;;;;;;3.22;1.82;;;;;;;0.62;56.88;101702.31;1788630;79;21634;-61
2022/03/01 01:42:52;;;;;;;4.92;1.90;;;;;;;0.64;57.00;101701.72;1788502;80;21551;-60
2022/03/01 01:45:21;;;;;;;5.05;1.80;;;;;;;0.67;57.18;101704.73;1788424;80;21138;-61
2022/03/01 01:47:51;;;;;;;2.98;1.70;;;;;;;0.68;57.46;101707.81;1788285;80;21087;-60
2022/03/01 01:50:23;;;;;;;4.75;1.75;;;;;;;0.66;57.69;101705.70;1788320;80;21153;-61
2022/03/01 01:52:52;;;;;;;3.33;1.70;;;;;;;0.62;57.88;101702.31;1788386;80;21206;-60
2022/03/01 01:55:24;;;;;;;3.95;1.77;;;;;;;0.62;58.05;101714.45;1788468;80;21154;-61
2022/03/01 01:57:56;;;;;;;3.22;1.70;;;;;;;0.61;58.26;101704.14;1788154;80;21241;-61
2022/03/01 02:00:24;;;;;;;5.22;2.15;;;;;;;0.59;58.51;101706.08;1788546;80;21142;-61
2022/03/01 02:02:53;;;;;;;3.65;2.00;;;;;;;0.54;59.07;101705.52;1780261;80;21155;-61
2022/03/01 02:05:22;;;;;;;4.30;2.10;;;;;;;0.46;59.31;101701.11;1763897;81;21116;-61
2022/03/01 02:07:51;;;;;;;4.67;1.92;;;;;;;0.46;59.49;101711.03;1774671;81;21159;-60
2022/03/01 02:10:20;;;;;;;4.55;2.20;;;;;;;0.46;59.92;101709.69;1774717;81;21563;-60
2022/03/01 02:12:48;;;;;;;3.10;1.80;;;;;;;0.45;60.16;101711.52;1774770;79;21112;-61
2022/03/01 02:15:18;;;;;;;4.33;2.10;;;;;;;0.47;60.53;101704.67;1774546;81;21574;-60
2022/03/01 02:17:46;;;;;;;7.92;2.30;;;;;;;0.46;60.68;101705.64;1774387;81;21543;-61
2022/03/01 02:20:20;;;;;;;5.53;2.37;;;;;;;0.45;61.75;101706.60;1774760;81;21620;-62
2022/03/01 02:22:54;;;;;;;4.60;2.40;;;;;;;0.41;62.20;101706.42;1774554;81;21182;-61
2022/03/01 02:25:23;;;;;;;6.50;2.02;;;;;;;0.40;62.62;101698.81;1774496;81;21115;-61
2022/03/01 02:27:52;;;;;;;5.03;2.20;;;;;;;0.42;63.12;101704.11;1774543;81;21571;-61
2022/03/01 02:37:29;;;;;;;6.50;3.23;;;;;;;0.32;66.15;101699.80;1832426;77;33998;-61
2022/03/01 02:39:59;;;;;;;4.70;2.40;;;;;;;0.33;66.56;101690.75;1820691;78;21150;-61
2022/03/01 02:42:30;;;;;;;5.78;2.80;;;;;;;0.36;66.80;101696.42;1753988;82;21166;-61
2022/03/01 02:44:59;;;;;;;6.80;2.77;;;;;;;0.31;67.45;101689.50;1754030;82;21582;-61
2022/03/01 02:47:28;;;;;;;6.03;2.90;;;;;;;0.30;67.87;101687.77;1754052;82;21173;-61
2022/03/01 02:49:57;;;;;;;5.30;2.50;;;;;;;0.25;68.80;101697.13;1754059;82;21310;-61
2022/03/01 02:52:26;;;;;;;5.53;2.75;;;;;;;0.15;69.42;101692.81;1753805;82;21607;-60
2022/03/01 02:54:54;;;;;;;6.67;2.92;;;;;;;0.08;69.98;101694.17;1754023;82;21253;-61
2022/03/01 02:57:24;;;;;;;5.05;2.55;;;;;;;0.05;70.39;101698.41;1753970;82;21661;-60
2022/03/01 02:59:53;;;;;;;5.50;2.87;;;;;;;0.01;70.80;101695.53;1754147;82;21655;-61
2022/03/01 03:02:22;;;;;;;6.20;2.90;;;;;;;-0.03;71.06;101692.13;1754077;82;21154;-61
2022/03/01 03:04:51;;;;;;;6.25;2.80;;;;;;;-0.03;71.48;101692.13;1753955;82;21221;-61
2022/03/01 03:07:19;;;;;;;7.05;2.90;;;;;;;-0.06;71.69;101688.77;1753963;82;21155;-61
2022/03/01 03:09:48;;;;;;;6.03;2.80;;;;;;;-0.10;71.89;101688.58;1754047;82;21119;-61
2022/03/01 03:12:18;;;;;;;6.17;2.47;;;;;;;-0.10;72.34;101680.50;1754085;82;21154;-61
2022/03/01 03:14:48;;;;;;;4.33;2.40;;;;;;;-0.13;72.91;101682.91;1754166;82;21142;-61
2022/03/01 03:17:17;;;;;;;7.50;3.00;;;;;;;-0.17;73.35;101684.55;1754075;82;21170;-62
2022/03/01 03:19:48;;;;;;;5.80;2.72;;;;;;;-0.19;73.65;101683.78;1754332;82;21672;-61
2022/03/01 03:22:17;;;;;;;7.40;3.22;;;;;;;-0.14;73.93;101681.66;1754168;82;21261;-61
2022/03/01 03:24:47;;;;;;;6.22;2.70;;;;;;;-0.15;74.08;101679.93;1754216;82;21130;-62
2022/03/01 03:27:16;;;;;;;6.33;3.00;;;;;;;-0.16;74.28;101678.20;1754452;82;21591;-61
2022/03/01 03:29:45;;;;;;;5.78;2.72;;;;;;;-0.15;74.40;101681.28;1754023;82;21288;-62
2022/03/01 03:32:14;;;;;;;7.42;2.67;;;;;;;-0.16;74.59;101678.20;1754005;82;21139;-61
2022/03/01 03:34:42;;;;;;;5.37;3.00;;;;;;;-0.19;74.81;101674.36;1754318;82;21666;-61
2022/03/01 03:37:11;;;;;;;6.42;2.75;;;;;;;-0.21;75.06;101673.11;1748161;82;21609;-60
2022/03/01 03:39:41;;;;;;;6.83;2.92;;;;;;;-0.20;75.15;101672.62;1815633;79;21507;-62
2022/03/01 03:42:10;;;;;;;5.67;2.95;;;;;;;-0.24;75.43;101665.70;1746111;82;21602;-62
2022/03/01 03:44:39;;;;;;;4.97;2.45;;;;;;;-0.26;75.77;101673.02;1815613;79;21516;-61
2022/03/01 03:47:09;;;;;;;5.83;2.72;;;;;;;-0.28;76.05;101666.38;1815266;79;21107;-62
2022/03/01 03:49:38;;;;;;;8.28;3.17;;;;;;;-0.27;76.15;101656.47;1814988;79;21256;-62
2022/03/01 03:52:08;;;;;;;5.58;2.77;;;;;;;-0.25;76.25;101658.59;1745589;82;21131;-61
2022/03/01 03:54:36;;;;;;;6.10;2.70;;;;;;;-0.24;76.39;101661.18;1814853;79;21103;-61
2022/03/01 03:57:08;;;;;;;6.47;2.95;;;;;;;-0.22;76.45;101661.08;1745503;82;21139;-61
2022/03/01 03:59:37;;;;;;;6.65;2.92;;;;;;;-0.20;76.44;101657.81;1815029;79;21118;-61
2022/03/01 04:02:06;;;;;;;6.55;2.90;;;;;;;-0.18;76.42;101659.92;1814835;79;21241;-61
2022/03/01 04:04:35;;;;;;;6.47;3.12;;;;;;;-0.19;76.52;101660.89;1745714;82;21174;-60
2022/03/01 04:07:04;;;;;;;5.40;2.98;;;;;;;-0.23;76.48;101656.18;1815010;79;21087;-61
2022/03/01 04:09:34;;;;;;;6.40;3.00;;;;;;;-0.26;76.57;101642.91;1814886;79;21115;-60
2022/03/01 04:12:04;;;;;;;7.37;2.52;;;;;;;-0.26;76.62;101643.39;1745530;82;21157;-61
2022/03/01 04:14:34;;;;;;;6.55;3.65;;;;;;;-0.28;76.88;101650.70;1814994;79;21646;-62
2022/03/01 04:17:03;;;;;;;7.97;2.60;;;;;;;-0.30;76.93;101644.55;1815028;79;21526;-61
2022/03/01 04:19:34;;;;;;;8.28;2.90;;;;;;;-0.33;77.18;101638.88;1814782;79;21266;-61
2022/03/01 04:22:04;;;;;;;6.90;3.10;;;;;;;-0.32;77.31;101634.73;1814822;79;21118;-61
2022/03/01 04:24:34;;;;;;;7.37;2.65;;;;;;;-0.29;77.37;101639.06;1814950;79;21086;-60
2022/03/01 04:27:04;;;;;;;5.15;2.80;;;;;;;-0.27;77.42;101630.89;1745673;82;21123;-61
2022/03/01 04:29:34;;;;;;;6.30;2.70;;;;;;;-0.25;77.49;101638.38;1814829;79;21659;-60
2022/03/01 04:32:04;;;;;;;5.33;2.90;;;;;;;-0.22;77.53;101639.05;1745680;82;21142;-61
2022/03/01 04:34:33;;;;;;;6.55;2.70;;;;;;;-0.21;77.42;101641.27;1814762;79;21300;-60
2022/03/01 04:37:03;;;;;;;5.17;2.90;;;;;;;-0.21;77.40;101641.27;1745409;82;21689;-61
2022/03/01 04:39:31;;;;;;;5.28;2.90;;;;;;;-0.24;77.50;101627.52;1814993;79;21668;-61
2022/03/01 04:42:00;;;;;;;5.60;2.92;;;;;;;-0.27;77.64;101630.89;1745763;82;21123;-61
2022/03/01 04:44:29;;;;;;;7.47;3.10;;;;;;;-0.28;77.78;101631.84;1814817;79;21158;-61
2022/03/01 04:46:58;;;;;;;6.25;2.50;;;;;;;-0.26;77.84;101625.88;1745539;82;21139;-61
2022/03/01 04:49:28;;;;;;;6.03;2.67;;;;;;;-0.22;77.85;101637.70;1814800;79;21269;-60
2022/03/01 04:51:56;;;;;;;4.28;2.02;;;;;;;-0.18;77.89;101631.64;1814740;79;21695;-61
2022/03/01 04:54:25;;;;;;;5.62;2.98;;;;;;;-0.15;77.82;101635.48;1745486;82;21195;-60
2022/03/01 04:56:54;;;;;;;6.70;2.70;;;;;;;-0.14;77.80;101635.87;1815029;79;21533;-61
2022/03/01 04:59:23;;;;;;;6.00;2.90;;;;;;;-0.15;77.79;101642.22;1745525;82;21631;-61
2022/03/01 05:01:52;;;;;;;4.65;2.47;;;;;;;-0.17;77.87;101640.97;1814691;79;21209;-62
2022/03/01 05:04:22;;;;;;;6.45;2.83;;;;;;;-0.15;77.90;101639.52;1745682;82;21285;-62
2022/03/01 05:06:51;;;;;;;5.78;2.45;;;;;;;-0.13;77.93;101641.64;1814770;79;21162;-61
2022/03/01 05:09:21;;;;;;;5.08;2.70;;;;;;;-0.12;78.04;101635.29;1745509;82;21150;-60
2022/03/01 05:11:50;;;;;;;6.35;2.60;;;;;;;-0.10;78.01;101644.13;1784195;79;21520;-61
2022/03/01 05:14:19;;;;;;;6.10;2.55;;;;;;;-0.09;78.03;101648.08;1814928;79;21177;-62
2022/03/01 05:16:48;;;;;;;5.67;2.50;;;;;;;-0.06;77.98;101649.22;1745695;82;21581;-61
2022/03/01 05:19:20;;;;;;;5.33;2.40;;;;;;;-0.03;77.95;101653.07;1814847;79;21578;-60
2022/03/01 05:21:51;;;;;;;6.08;2.67;;;;;;;-0.04;77.92;101649.12;1745530;82;21127;-61
2022/03/01 05:24:19;;;;;;;4.85;2.67;;;;;;;-0.05;77.97;101647.40;1814800;79;21584;-61
2022/03/01 05:26:50;;;;;;;4.87;2.25;;;;;;;-0.04;78.02;101650.47;1745359;82;21135;-61
2022/03/01 05:29:19;;;;;;;5.78;2.45;;;;;;;-0.01;78.02;101643.54;1815327;79;21574;-61
2022/03/01 05:31:48;;;;;;;5.33;2.50;;;;;;;-0.01;78.00;101641.71;1816223;79;21607;-62
2022/03/01 05:34:17;;;;;;;4.60;2.52;;;;;;;-0.02;77.94;101645.84;1747210;82;21123;-61
2022/03/01 05:36:48;;;;;;;6.22;2.65;;;;;;;-0.03;77.98;101634.20;1813061;79;21154;-61
2022/03/01 05:39:17;;;;;;;5.00;2.60;;;;;;;-0.01;78.00;101647.58;1806454;79;21266;-62
2022/03/01 05:41:46;;;;;;;5.35;2.37;;;;;;;-0.03;77.98;101636.91;1737616;82;21150;-62
2022/03/01 05:44:15;;;;;;;5.05;2.62;;;;;;;-0.03;78.00;101639.59;1806182;79;21553;-61
2022/03/01 05:46:45;;;;;;;5.05;2.27;;;;;;;-0.03;78.04;101638.25;1737647;82;21107;-61
2022/03/01 05:49:14;;;;;;;4.67;2.37;;;;;;;-0.02;78.01;101633.73;1806452;79;21543;-61
2022/03/01 05:51:46;;;;;;;5.22;2.60;;;;;;;-0.01;78.09;101632.28;1806844;78;21153;-62
2022/03/01 05:54:15;;;;;;;4.30;2.12;;;;;;;-0.01;78.08;101631.41;1806515;79;21150;-61
2022/03/01 05:56:44;;;;;;;7.25;2.70;;;;;;;-0.02;78.03;101624.30;1737887;82;21262;-61
2022/03/01 05:59:13;;;;;;;7.53;2.75;;;;;;;-0.07;78.04;101624.59;1806394;79;21087;-61
2022/03/01 06:01:42;;;;;;;3.98;2.33;;;;;;;-0.07;78.17;101619.69;1737823;82;21720;-62
2022/03/01 06:04:11;;;;;;;4.78;2.37;;;;;;;-0.08;78.58;101626.91;1806263;79;21715;-62
2022/03/01 06:06:41;;;;;;;4.83;2.00;;;;;;;-0.09;78.57;101633.26;1737650;82;21154;-63
2022/03/01 06:09:10;;;;;;;5.90;2.83;;;;;;;-0.10;78.54;101631.53;1806236;79;21640;-59
2022/03/01 06:11:38;;;;;;;4.85;2.17;;;;;;;-0.07;78.51;101619.69;1737601;82;21247;-60
2022/03/01 06:14:07;;;;;;;8.73;2.90;;;;;;;-0.07;78.45;101623.25;1806301;79;21554;-61
2022/03/01 06:16:37;;;;;;;5.40;2.15;;;;;;;-0.05;78.39;101624.02;1737587;82;21151;-61
2022/03/01 06:19:07;;;;;;;4.95;2.65;;;;;;;-0.05;78.44;101628.05;1806289;79;21115;-61
2022/03/01 06:21:36;;;;;;;4.35;2.20;;;;;;;-0.04;78.51;101632.48;1737752;82;21504;-62
2022/03/01 06:24:06;;;;;;;4.40;2.25;;;;;;;-0.04;78.50;101628.44;1806256;79;21115;-60
2022/03/01 06:26:37;;;;;;;5.95;2.70;;;;;;;-0.02;78.56;101633.24;1737405;82;21139;-62
2022/03/01 06:29:06;;;;;;;4.70;2.30;;;;;;;0.00;78.52;101631.83;1806438;79;21562;-61
2022/03/01 06:31:34;;;;;;;6.05;2.75;;;;;;;-0.02;78.51;101632.38;1737803;82;21621;-62
2022/03/01 06:34:03;;;;;;;5.28;2.37;;;;;;;-0.02;78.65;101626.51;1806209;79;21546;-62
2022/03/01 06:36:32;;;;;;;5.30;2.65;;;;;;;-0.01;78.58;101624.68;1737465;82;21262;-62
2022/03/01 06:39:02;;;;;;;5.80;2.58;;;;;;;0.03;78.63;101632.98;1806416;79;21562;-63
2022/03/01 06:41:31;;;;;;;6.78;2.87;;;;;;;0.05;78.66;101624.80;1737741;82;21570;-64
2022/03/01 06:43:59;;;;;;;5.87;2.85;;;;;;;0.05;78.69;101624.31;1806106;79;21115;-62
2022/03/01 06:46:28;;;;;;;6.12;2.42;;;;;;;0.07;78.69;101627.77;1737925;82;21253;-61
2022/03/01 06:48:58;;;;;;;5.12;2.45;;;;;;;0.08;78.77;101636.72;1806512;79;21612;-61
2022/03/01 06:51:27;;;;;;;6.87;2.87;;;;;;;0.05;78.69;101624.31;1737757;82;21567;-61
2022/03/01 06:53:56;;;;;;;7.33;2.37;;;;;;;0.05;78.77;101631.05;1806166;79;21193;-61
2022/03/01 06:56:30;;;;;;;8.50;3.00;;;;;;;0.07;78.86;101630.47;1737553;82;21246;-61
2022/03/01 06:59:01;;;;;;;5.53;2.50;;;;;;;0.11;78.80;101627.95;1806379;79;21493;-61
2022/03/01 07:01:30;;;;;;;5.58;2.77;;;;;;;0.15;78.83;101632.66;1737897;82;21171;-61
2022/03/01 07:04:01;;;;;;;6.50;2.90;;;;;;;0.17;78.66;101626.69;1806117;79;21218;-62
2022/03/01 07:06:30;;;;;;;6.22;2.65;;;;;;;0.16;78.51;101639.30;1737722;82;21290;-61
2022/03/01 07:08:59;;;;;;;6.28;3.12;;;;;;;0.18;78.56;101626.58;1806176;79;21163;-61
2022/03/01 07:11:28;;;;;;;6.37;2.83;;;;;;;0.20;78.42;101639.96;1737673;82;21631;-61
2022/03/01 07:13:57;;;;;;;5.58;2.65;;;;;;;0.18;78.42;101631.11;1806455;79;21103;-61
2022/03/01 07:16:29;;;;;;;6.17;2.62;;;;;;;0.16;78.31;101631.21;1737575;82;21119;-61
2022/03/01 07:18:59;;;;;;;6.72;3.12;;;;;;;0.17;78.32;101631.59;1806085;79;21562;-61
2022/03/01 07:21:27;;;;;;;5.37;2.60;;;;;;;0.17;78.33;101630.73;1737500;82;21293;-61
2022/03/01 07:23:56;;;;;;;6.60;2.87;;;;;;;0.17;78.34;101633.42;1806104;79;21582;-61
2022/03/01 07:26:27;;;;;;;6.62;2.80;;;;;;;0.20;78.37;101628.70;1737623;82;21127;-62
2022/03/01 07:28:57;;;;;;;6.90;2.75;;;;;;;0.23;78.44;101624.45;1806303;79;21638;-62
2022/03/01 07:31:28;;;;;;;4.90;2.80;;;;;;;0.27;78.34;101617.89;1737669;82;21160;-63
2022/03/01 07:33:57;;;;;;;7.62;3.42;;;;;;;0.25;78.16;101631.95;1806315;79;21281;-62
2022/03/01 07:36:27;;;;;;;6.45;3.20;;;;;;;0.24;78.06;101623.48;1737423;82;21139;-61
2022/03/01 07:38:58;;;;;;;6.45;2.80;;;;;;;0.28;78.06;101620.10;1799472;79;21139;-61
2022/03/01 07:41:26;;;;;;;6.12;3.10;;;;;;;0.30;78.00;101620.37;1718584;83;21261;-60
2022/03/01 07:43:55;;;;;;;5.25;2.75;;;;;;;0.33;78.04;101613.05;1798938;80;21147;-62
2022/03/01 07:46:24;;;;;;;6.12;2.92;;;;;;;0.36;78.07;101630.37;1718470;82;21582;-63
2022/03/01 07:48:53;;;;;;;5.80;3.05;;;;;;;0.36;77.98;101635.28;1799016;80;21290;-63
2022/03/01 07:51:24;;;;;;;6.42;3.45;;;;;;;0.36;78.03;101631.72;1718758;83;21676;-61
2022/03/01 07:53:53;;;;;;;5.35;3.00;;;;;;;0.34;77.94;101637.22;1798906;80;21147;-62
2022/03/01 07:56:25;;;;;;;7.30;3.33;;;;;;;0.34;77.97;101639.05;1718549;83;21720;-61
2022/03/01 07:58:54;;;;;;;5.78;2.95;;;;;;;0.34;78.02;101635.87;1798893;79;21138;-60
2022/03/01 08:01:27;;;;;;;9.75;3.05;;;;;;;0.33;78.07;101631.92;1798953;79;21174;-63
2022/03/01 08:03:56;;;;;;;8.13;3.60;;;;;;;0.31;78.16;101623.45;1798929;80;21143;-62
2022/03/01 08:06:26;;;;;;;7.22;3.30;;;;;;;0.32;78.20;101625.67;1718514;83;21678;-62
2022/03/01 08:08:55;;;;;;;9.40;3.30;;;;;;;0.36;78.26;101629.03;1798924;80;21262;-62
2022/03/01 08:11:27;;;;;;;6.17;3.10;;;;;;;0.39;78.09;101628.82;1718420;83;21297;-61
2022/03/01 08:13:59;;;;;;;6.72;3.08;;;;;;;0.41;78.09;101638.53;1798894;79;21089;-62
2022/03/01 08:16:29;;;;;;;7.67;3.50;;;;;;;0.44;78.08;101633.42;1798854;80;21547;-62
2022/03/01 08:18:59;;;;;;;5.33;2.50;;;;;;;0.45;78.09;101631.97;1718518;83;21709;-63
2022/03/01 08:21:28;;;;;;;6.62;3.33;;;;;;;0.47;78.01;101633.22;1799152;80;21539;-62
2022/03/01 08:23:57;;;;;;;6.55;3.12;;;;;;;0.46;78.07;101629.66;1718321;82;21609;-61
2022/03/01 08:26:27;;;;;;;7.10;3.15;;;;;;;0.49;78.08;101625.41;1799050;80;21532;-63
2022/03/01 08:28:58;;;;;;;5.62;2.87;;;;;;;0.51;78.07;101626.66;1799113;80;21194;-64
2022/03/01 08:31:27;;;;;;;7.15;3.27;;;;;;;0.49;77.98;101632.63;1718695;83;21558;-63
2022/03/01 08:33:59;;;;;;;7.08;3.50;;;;;;;0.48;77.98;101625.51;1798818;80;21119;-63
2022/03/01 08:36:28;;;;;;;6.05;3.10;;;;;;;0.51;78.28;101619.91;1798869;80;21620;-63
2022/03/01 08:38:57;;;;;;;6.08;2.98;;;;;;;0.51;78.32;101614.52;1739810;82;21130;-62
2022/03/01 08:41:27;;;;;;;6.00;3.37;;;;;;;0.50;78.36;101624.44;1814097;79;21138;-62
2022/03/01 08:43:56;;;;;;;6.08;3.22;;;;;;;0.49;78.42;101620.02;1745747;82;21524;-63
2022/03/01 08:46:25;;;;;;;5.40;3.08;;;;;;;0.51;78.47;101616.73;1814812;79;21230;-63
2022/03/01 08:48:58;;;;;;;7.78;3.72;;;;;;;0.56;78.50;101617.77;1814756;79;21177;-63
2022/03/01 08:51:28;;;;;;;8.08;3.47;;;;;;;0.58;78.60;101615.34;1745601;82;21130;-63
2022/03/01 08:53:59;;;;;;;8.13;3.52;;;;;;;0.59;78.52;101618.42;1814719;79;21150;-64
2022/03/01 08:56:30;;;;;;;5.03;2.70;;;;;;;0.59;78.47;101610.81;1745273;82;21099;-63
2022/03/01 08:59:00;;;;;;;6.05;3.37;;;;;;;0.61;78.49;101623.23;1815202;79;21115;-63
2022/03/01 09:01:29;;;;;;;6.60;2.90;;;;;;;0.58;78.39;101611.78;1745664;82;21135;-62
2022/03/01 09:03:59;;;;;;;8.40;3.50;;;;;;;0.57;78.38;101619.02;1814738;79;21266;-62
2022/03/01 09:06:28;;;;;;;8.13;3.47;;;;;;;0.60;78.36;101615.24;1745528;82;21159;-62
2022/03/01 09:08:58;;;;;;;7.62;3.62;;;;;;;0.62;78.26;101616.00;1814735;79;21110;-62
2022/03/01 09:11:27;;;;;;;6.42;3.30;;;;;;;0.63;78.30;101616.38;1745523;82;21162;-61
2022/03/01 09:13:56;;;;;;;6.92;3.50;;;;;;;0.64;78.36;101620.81;1814783;79;21107;-61
2022/03/01 09:16:25;;;;;;;6.20;3.22;;;;;;;0.66;78.38;101611.30;1745480;82;21559;-61
2022/03/01 09:18:54;;;;;;;7.92;3.70;;;;;;;0.72;78.41;101610.39;1814783;79;21118;-61
2022/03/01 09:21:26;;;;;;;6.50;3.27;;;;;;;0.77;78.32;101609.59;1815170;79;21569;-62
2022/03/01 09:23:57;;;;;;;7.60;3.67;;;;;;;0.81;78.28;101608.41;1745616;82;21553;-61
2022/03/01 09:26:25;;;;;;;7.97;3.87;;;;;;;0.84;78.23;101614.08;1814745;79;21154;-61
2022/03/01 09:28:55;;;;;;;8.85;4.55;;;;;;;0.85;78.16;101601.84;1745393;82;21791;-64
2022/03/01 09:31:26;;;;;;;8.73;3.80;;;;;;;0.87;78.24;101601.25;1814731;79;21570;-61
2022/03/01 09:33:55;;;;;;;8.65;3.80;;;;;;;0.88;78.32;101598.93;1745469;82;21616;-62
2022/03/01 09:36:24;;;;;;;6.72;3.50;;;;;;;0.88;78.28;101593.53;1814779;79;21598;-62
2022/03/01 09:38:53;;;;;;;6.35;3.72;;;;;;;0.87;78.35;101603.08;1745354;82;21619;-61
2022/03/01 09:41:24;;;;;;;6.67;3.60;;;;;;;0.84;78.32;101592.50;1814913;79;21511;-61
2022/03/01 09:43:58;;;;;;;7.58;4.00;;;;;;;0.83;78.47;101594.34;1745397;82;21225;-60
2022/03/01 09:46:26;;;;;;;8.98;4.42;;;;;;;0.84;78.56;101579.88;1783925;79;21230;-59
2022/03/01 09:48:55;;;;;;;5.58;3.12;;;;;;;0.86;78.51;101578.42;1745556;82;21543;-60
2022/03/01 09:51:25;;;;;;;8.03;3.55;;;;;;;0.90;78.58;101578.09;1814882;79;21119;-60
2022/03/01 09:53:55;;;;;;;7.65;3.87;;;;;;;0.92;78.53;101578.86;1814722;79;21554;-61
2022/03/01 09:56:24;;;;;;;7.30;3.75;;;;;;;0.93;78.42;101577.88;1745464;82;21158;-60
2022/03/01 09:58:55;;;;;;;8.70;4.22;;;;;;;0.94;78.40;101573.35;1814855;79;21637;-61
2022/03/01 10:01:27;;;;;;;7.08;3.62;;;;;;;0.95;78.43;101578.64;1745541;82;21135;-61
2022/03/01 10:04:13;;;;;;;8.93;4.00;;;;;;;1.00;78.58;101570.70;1814730;79;21087;-60
2022/03/01 10:06:46;;;;;;;6.53;3.75;;;;;;;1.04;78.51;101569.52;1745501;82;21707;-61
2022/03/01 10:09:21;;;;;;;8.63;4.25;;;;;;;1.01;78.50;101563.86;1814376;79;21154;-61
2022/03/01 10:11:49;;;;;;;10.10;4.40;;;;;;;1.00;78.49;101566.66;1814728;79;21115;-62
2022/03/01 10:14:29;;;;;;;9.10;4.15;;;;;;;1.05;78.63;101564.50;1815010;79;21134;-61
2022/03/01 10:17:04;;;;;;;8.83;4.22;;;;;;;1.08;78.69;101569.69;1745613;82;21167;-60
2022/03/01 10:19:33;;;;;;;8.50;4.55;;;;;;;1.11;78.67;101566.28;1783401;79;21218;-65
2022/03/01 10:22:03;;;;;;;9.08;5.20;;;;;;;1.14;78.75;101562.50;1814682;79;21149;-63
2022/03/01 10:24:32;;;;;;;9.25;4.47;;;;;;;1.18;78.71;101562.18;1814875;79;21434;-64
2022/03/01 10:27:05;;;;;;;7.00;3.90;;;;;;;1.18;78.64;101559.97;1745502;82;21217;-63
2022/03/01 10:29:35;;;;;;;9.80;4.75;;;;;;;1.20;78.62;101559.37;1813284;79;22232;-64
2022/03/01 10:32:12;;;;;;;9.08;4.50;;;;;;;1.21;78.71;101559.74;1745712;82;21559;-63
2022/03/01 10:35:05;;;;;;;9.53;4.58;;;;;;;1.24;78.81;101554.12;1814936;79;21578;-63
2022/03/01 10:37:41;;;;;;;9.73;4.35;;;;;;;1.28;78.78;101555.64;1814598;79;21114;-63
2022/03/01 10:40:22;;;;;;;11.70;4.83;;;;;;;1.30;78.70;101552.83;1716439;82;21262;-62
2022/03/01 10:43:12;;;;;;;8.48;4.37;;;;;;;1.30;78.36;101546.08;1814652;79;21184;-62
2022/03/01 10:45:47;;;;;;;11.18;4.72;;;;;;;1.29;78.46;101542.52;1814648;79;21153;-62
2022/03/01 10:48:34;;;;;;;9.45;5.03;;;;;;;1.29;78.39;101534.41;1745479;82;21139;-63
2022/03/01 10:51:09;;;;;;;11.83;4.92;;;;;;;1.33;78.51;101543.19;1814714;79;21091;-61
2022/03/01 10:53:50;;;;;;;8.38;4.20;;;;;;;1.31;78.44;101539.25;1814631;79;21118;-61
2022/03/01 10:56:18;;;;;;;9.58;4.83;;;;;;;1.31;78.41;101546.48;1814561;79;21547;-63
2022/03/01 10:58:50;;;;;;;9.30;4.97;;;;;;;1.36;78.42;101541.62;1754400;79;21197;-63
2022/03/01 11:01:26;;;;;;;8.68;4.37;;;;;;;1.33;78.32;101535.95;1745889;82;21562;-62
2022/03/01 11:03:57;;;;;;;7.47;4.15;;;;;;;1.36;78.37;101537.56;1814962;79;21174;-62
2022/03/01 11:06:27;;;;;;;9.70;5.15;;;;;;;1.34;78.48;101520.12;1814710;79;21107;-62
2022/03/01 11:08:59;;;;;;;9.13;4.37;;;;;;;1.35;78.55;101519.16;1784739;79;21130;-62
2022/03/01 11:11:32;;;;;;;9.58;4.75;;;;;;;1.41;78.74;101528.16;1784076;79;21241;-63
2022/03/01 11:14:02;;;;;;;8.70;4.70;;;;;;;1.45;78.77;101518.86;1814933;79;21110;-63
2022/03/01 11:17:23;;;;;;;6.97;4.00;;;;;;;1.50;78.81;101522.58;1784091;79;21225;-62
2022/03/01 11:20:04;;;;;;;9.70;4.87;;;;;;;1.54;78.83;101526.29;1814711;79;21099;-65
2022/03/01 11:22:46;;;;;;;8.45;4.28;;;;;;;1.53;78.43;101519.66;1773283;79;21146;-63
2022/03/01 11:25:18;;;;;;;11.57;4.92;;;;;;;1.55;78.35;101522.61;1814749;79;21151;-63
2022/03/01 11:27:50;;;;;;;8.65;4.40;;;;;;;1.55;78.29;101533.42;1814929;79;21150;-63
2022/03/01 11:30:30;;;;;;;8.70;4.60;;;;;;;1.56;78.18;101528.87;1814931;79;21138;-63
2022/03/01 11:33:01;;;;;;;9.28;4.90;;;;;;;1.54;78.02;101526.78;1815109;79;21538;-62
2022/03/01 11:35:33;;;;;;;10.50;5.00;;;;;;;1.54;78.21;101518.19;1745352;82;21159;-62
2022/03/01 11:38:08;;;;;;;9.80;4.53;;;;;;;1.60;78.45;101520.92;1814625;79;21515;-62
2022/03/01 11:40:47;;;;;;;9.80;4.92;;;;;;;1.65;78.53;101512.00;1737193;82;21218;-62
2022/03/01 11:43:21;;;;;;;10.32;4.70;;;;;;;1.70;78.51;101511.66;1806284;79;21249;-63
2022/03/01 11:45:56;;;;;;;9.48;5.00;;;;;;;1.77;78.47;101500.77;1806564;79;21535;-63
2022/03/01 11:48:27;;;;;;;11.10;5.85;;;;;;;1.82;78.45;101512.09;1807274;79;21218;-63
2022/03/01 11:51:03;;;;;;;10.95;5.45;;;;;;;1.84;78.37;101514.19;1737963;82;21804;-62
2022/03/01 11:53:38;;;;;;;10.80;4.75;;;;;;;1.83;78.11;101501.17;1806280;79;21143;-63